»·PEaware :: BADGR13 KEND-KEND

BADGR13 :: KEND-KEND

FLIGHT INFORMATION

Flight Status: Arrived
Operator: Unknown
More flights by this operator :: More flights under this callsign
Pilot: Abraham G. (22221)
Aircraft: BEECH AIRCRAFT T-6A TEXAN
(TEX2)
More flights by this aircraft type
Origin: KEND Vance AFB
United States
Destination: KEND Vance AFB
United States
More flights between these airports :: More routes between these airports
Route: +END9 PLANS
File this flight plan on PilotEdge
Remarks:
Altitude:
(Current/Filed)
0ft
Speed:
(Current/Filed)
0kts
Departed: 26-Mar-20 10:26 AM
Arrived: 26-Mar-20 11:08 AM
Distance/Time
Traveled:
0nm/0:42
Distance/Time
To Go:
Arrived

Flight Plot

Page will automatically refresh every two minutes.


Map Options




Map Legend


Flown Route
Filed Route
Departure Airport
Arrival Airport
Navaid (VOR, NDB)
Fix

Horizontal Profiles

Position Reports

Time Latitude Longitude Heading Altitude Ground
Speed
26-Mar-20 10:10 36.346985 -97.909580 350 1280ft 2kts
26-Mar-20 10:15 36.346971 -97.909990 216 1279ft 0kts
26-Mar-20 10:16 36.346971 -97.909990 216 1279ft 0kts
26-Mar-20 10:17 36.346971 -97.909990 216 1279ft 0kts
26-Mar-20 10:18 36.346971 -97.909990 216 1279ft 0kts
26-Mar-20 10:19 36.346971 -97.909990 216 1279ft 0kts
26-Mar-20 10:20 36.346971 -97.909990 216 1279ft 0kts
26-Mar-20 10:21 36.346971 -97.909990 216 1279ft 0kts
26-Mar-20 10:22 36.346971 -97.909990 216 1279ft 0kts
26-Mar-20 10:23 36.346957 -97.909995 184 1279ft 0kts
26-Mar-20 10:24 36.346806 -97.910614 281 1279ft 13kts
26-Mar-20 10:25 36.326387 -97.910928 183 1722ft 168kts
26-Mar-20 10:26 36.276132 -97.898643 169 4215ft 191kts
26-Mar-20 10:27 36.220824 -97.875710 134 5100ft 248kts
26-Mar-20 10:28 36.246478 -97.824279 337 4980ft 241kts
26-Mar-20 10:29 36.308982 -97.860340 333 5019ft 247kts
26-Mar-20 10:30 36.374055 -97.897040 333 5006ft 250kts
26-Mar-20 10:31 36.441659 -97.910190 2 5015ft 256kts
26-Mar-20 10:32 36.512803 -97.903410 0 5010ft 255kts
26-Mar-20 10:33 36.579599 -97.910240 317 6018ft 245kts
26-Mar-20 10:34 36.611241 -97.985762 298 5984ft 246kts
26-Mar-20 10:35 36.646900 -98.058410 300 6039ft 246kts
26-Mar-20 10:36 36.680416 -98.133736 292 5018ft 227kts
26-Mar-20 10:37 36.702121 -98.206731 289 5086ft 231kts
26-Mar-20 10:38 36.726493 -98.284517 291 4912ft 251kts
26-Mar-20 10:39 36.750607 -98.365205 288 4561ft 247kts
26-Mar-20 10:40 36.711805 -98.403030 190 3432ft 224kts
26-Mar-20 10:41 36.719301 -98.473534 287 4382ft 243kts
26-Mar-20 10:42 36.744800 -98.543689 288 4205ft 206kts
26-Mar-20 10:43 36.763599 -98.610040 283 3042ft 195kts
26-Mar-20 10:44 36.796596 -98.633528 309 2803ft 127kts
26-Mar-20 10:45 36.791860 -98.669790 195 1866ft 117kts
26-Mar-20 10:46 36.763762 -98.670266 183 1970ft 134kts
26-Mar-20 10:47 36.786382 -98.646704 359 2967ft 144kts
26-Mar-20 10:48 36.783275 -98.670300 181 1583ft 99kts
26-Mar-20 10:49 36.761314 -98.650081 97 2709ft 187kts
26-Mar-20 10:50 36.744838 -98.581085 123 4731ft 229kts
26-Mar-20 10:51 36.708213 -98.508904 123 5494ft 259kts
26-Mar-20 10:52 36.667154 -98.435513 126 5500ft 259kts
26-Mar-20 10:53 36.627060 -98.360469 125 5473ft 260kts
26-Mar-20 10:54 36.631956 -98.270333 81 6043ft 262kts
26-Mar-20 10:55 36.643501 -98.178312 80 6038ft 261kts
26-Mar-20 10:56 36.653046 -98.087961 86 6014ft 262kts
26-Mar-20 10:57 36.646367 -97.997136 96 5987ft 263kts
26-Mar-20 10:58 36.654017 -97.907103 81 6033ft 262kts
26-Mar-20 10:59 36.648046 -97.817398 122 5872ft 266kts
26-Mar-20 11:00 36.580384 -97.800890 181 3755ft 245kts
26-Mar-20 11:01 36.522494 -97.825530 219 2378ft 234kts
26-Mar-20 11:02 36.476607 -97.880242 230 2246ft 223kts
26-Mar-20 11:03 36.428998 -97.910744 184 2328ft 204kts
26-Mar-20 11:04 36.372575 -97.910503 181 2350ft 200kts
26-Mar-20 11:05 36.352166 -97.894601 1 2352ft 148kts
26-Mar-20 11:06 36.346213 -97.910957 180 1282ft 84kts
26-Mar-20 11:07 36.333771 -97.910200 46 1291ft 0kts
26-Mar-20 11:08 36.333776 -97.910193 46 1291ft 0kts

Navigation Log

Ident Type
Flight plan parsing failed, navigation log unavailable